createdAt,value
2018-09-01T00:01:11.084Z,11.20
2018-09-01T00:03:38.787Z,12.53
2018-09-01T00:06:06.526Z,11.60
2018-09-01T00:08:34.204Z,13.53
2018-09-01T00:11:01.913Z,11.10
2018-09-01T00:13:29.619Z,12.33
2018-09-01T00:15:57.307Z,12.33
2018-09-01T00:18:25.014Z,12.10
2018-09-01T00:20:52.745Z,12.30
2018-09-01T00:23:20.442Z,13.07
2018-09-01T00:25:48.133Z,13.60
2018-09-01T00:28:15.883Z,12.97
2018-09-01T00:30:43.647Z,13.53
2018-09-01T00:33:11.322Z,13.57
2018-09-01T00:35:39.032Z,18.10
2018-09-01T00:38:12.348Z,12.30
2018-09-01T00:40:40.084Z,13.13
2018-09-01T00:43:07.790Z,12.07
2018-09-01T00:45:35.475Z,13.20
2018-09-01T00:48:03.209Z,17.90
2018-09-01T00:50:30.912Z,12.10
2018-09-01T00:52:58.615Z,11.57
2018-09-01T00:55:32.246Z,15.57
2018-09-01T00:58:00.413Z,12.43
2018-09-01T01:00:28.107Z,11.47
2018-09-01T01:02:55.838Z,12.70
2018-09-01T01:05:23.567Z,13.47
2018-09-01T01:07:51.358Z,11.47
2018-09-01T01:10:19.089Z,13.17
2018-09-01T01:12:47.808Z,15.13
2018-09-01T01:15:15.514Z,16.60
2018-09-01T01:17:43.250Z,12.30
2018-09-01T01:20:11.002Z,13.03
2018-09-01T01:22:38.740Z,12.57
2018-09-01T01:25:06.803Z,11.33
2018-09-01T01:27:34.804Z,11.23
2018-09-01T01:30:02.790Z,13.23
2018-09-01T01:32:30.608Z,10.57
2018-09-01T01:35:01.287Z,11.87
2018-09-01T01:37:29.014Z,11.77
2018-09-01T01:39:56.722Z,11.20
2018-09-01T01:42:24.492Z,12.23
2018-09-01T01:44:52.182Z,14.83
2018-09-01T01:47:19.935Z,13.17
2018-09-01T01:49:47.609Z,13.33
2018-09-01T01:52:15.318Z,12.80
2018-09-01T01:54:43.025Z,11.83
2018-09-01T01:57:10.805Z,14.10
2018-09-01T01:59:38.480Z,12.00
2018-09-01T02:02:06.453Z,17.53
2018-09-01T02:04:34.154Z,14.03
2018-09-01T02:07:01.872Z,12.97
2018-09-01T02:09:29.633Z,11.43
2018-09-01T02:11:57.349Z,10.77
2018-09-01T02:14:25.084Z,11.43
2018-09-01T02:16:52.877Z,13.20
2018-09-01T02:19:20.577Z,14.70
2018-09-01T02:21:48.287Z,12.10
2018-09-01T02:24:16.038Z,14.57
2018-09-01T02:26:43.742Z,12.23
2018-09-01T02:29:11.514Z,12.43
2018-09-01T02:31:39.233Z,15.40
2018-09-01T02:34:13.545Z,11.63
2018-09-01T02:36:41.281Z,13.17
2018-09-01T02:39:08.991Z,18.20
2018-09-01T02:41:36.691Z,17.17
2018-09-01T02:44:04.410Z,19.53
2018-09-01T02:46:32.117Z,13.93
2018-09-01T02:48:59.793Z,17.04
2018-09-01T02:51:27.543Z,14.70
2018-09-01T02:53:55.266Z,13.10
2018-09-01T02:56:23.074Z,12.63
2018-09-01T02:58:50.827Z,14.03
2018-09-01T03:01:24.094Z,12.20
2018-09-01T03:03:51.842Z,15.07
2018-09-01T03:06:19.558Z,15.17
2018-09-01T03:08:47.246Z,14.37
2018-09-01T03:11:15.078Z,13.30
2018-09-01T03:13:42.748Z,12.13
2018-09-01T03:16:10.496Z,12.67
2018-09-01T03:18:38.219Z,12.50
2018-09-01T03:21:05.965Z,12.67
2018-09-01T03:23:33.646Z,14.57
2018-09-01T03:26:01.368Z,15.20
2018-09-01T03:28:29.126Z,14.93
2018-09-01T03:30:56.914Z,14.00
2018-09-01T03:33:24.706Z,15.90
2018-09-01T03:35:52.397Z,14.13
2018-09-01T03:38:20.078Z,16.03
2018-09-01T03:40:47.837Z,18.00
2018-09-01T03:43:15.539Z,18.07
2018-09-01T03:45:43.263Z,17.73
2018-09-01T03:48:11.098Z,17.90
2018-09-01T03:50:38.790Z,18.63
2018-09-01T03:53:06.482Z,20.10
2018-09-01T03:55:34.214Z,20.13
2018-09-01T03:58:02.332Z,17.87
2018-09-01T04:00:30.085Z,17.43
2018-09-01T04:02:58.109Z,15.37
2018-09-01T04:05:26.037Z,19.57
2018-09-01T04:07:53.770Z,17.70
2018-09-01T04:10:21.696Z,19.33
2018-09-01T04:12:49.630Z,15.90
2018-09-01T04:15:17.318Z,16.17
2018-09-01T04:17:45.019Z,19.37
2018-09-01T04:20:12.869Z,16.77
2018-09-01T04:22:40.603Z,15.20
2018-09-01T04:25:08.394Z,15.93
2018-09-01T04:27:36.094Z,16.30
2018-09-01T04:30:03.961Z,18.53
2018-09-01T04:32:31.695Z,17.30
2018-09-01T04:34:59.391Z,15.27
2018-09-01T04:37:27.075Z,14.97
2018-09-01T04:39:54.795Z,14.37
2018-09-01T04:42:22.482Z,15.83
2018-09-01T04:44:50.174Z,18.70
2018-09-01T04:47:17.976Z,18.03
2018-09-01T04:49:45.660Z,17.97
2018-09-01T04:52:13.388Z,22.57
2018-09-01T04:54:41.101Z,24.77
2018-09-01T04:57:08.790Z,26.23
2018-09-01T04:59:36.499Z,24.80
2018-09-01T05:02:04.283Z,25.37
2018-09-01T05:04:31.986Z,24.30
2018-09-01T05:06:59.686Z,21.77
2018-09-01T05:09:27.405Z,18.03
2018-09-01T05:11:55.119Z,19.63
2018-09-01T05:14:22.793Z,18.63
2018-09-01T05:16:50.606Z,18.37
2018-09-01T05:19:18.394Z,23.27
2018-09-01T05:21:46.159Z,17.93
2018-09-01T05:24:13.888Z,20.87
2018-09-01T05:26:41.565Z,20.67
2018-09-01T05:29:09.374Z,18.37
2018-09-01T05:31:37.094Z,22.93
2018-09-01T05:34:04.906Z,18.50
2018-09-01T05:36:32.674Z,17.50
2018-09-01T05:39:00.413Z,17.47
2018-09-01T05:41:28.115Z,15.80
2018-09-01T05:43:55.814Z,14.70
2018-09-01T05:46:23.529Z,16.70
2018-09-01T05:48:51.218Z,16.73
2018-09-01T05:51:18.907Z,15.10
2018-09-01T05:53:46.640Z,20.03
2018-09-01T05:56:14.363Z,16.53
2018-09-01T05:58:42.062Z,19.50
2018-09-01T06:01:09.882Z,15.93
2018-09-01T06:03:37.658Z,18.23
2018-09-01T06:06:05.527Z,13.77
2018-09-01T06:08:33.134Z,14.10
2018-09-01T06:11:00.910Z,15.57
2018-09-01T06:13:28.581Z,14.17
2018-09-01T06:15:56.302Z,14.80
2018-09-01T06:18:24.028Z,13.73
2018-09-01T06:20:51.718Z,16.03
2018-09-01T06:23:19.453Z,14.47
2018-09-01T06:25:47.186Z,17.00
2018-09-01T06:28:18.310Z,17.40
2018-09-01T06:30:48.436Z,16.80
2018-09-01T06:33:16.243Z,13.97
2018-09-01T06:35:43.945Z,15.03
2018-09-01T06:38:11.781Z,14.53
2018-09-01T06:40:39.510Z,15.20
2018-09-01T06:43:07.277Z,12.73
2018-09-01T06:45:34.989Z,13.73
2018-09-01T06:48:02.669Z,13.40
2018-09-01T06:50:30.369Z,13.83
2018-09-01T06:52:58.106Z,13.70
2018-09-01T06:55:25.830Z,13.10
2018-09-01T06:57:53.601Z,12.50
2018-09-01T07:00:22.692Z,12.00
2018-09-01T07:02:51.384Z,17.43
2018-09-01T07:05:19.086Z,14.00
2018-09-01T07:07:46.837Z,14.63
2018-09-01T07:10:14.569Z,14.63
2018-09-01T07:12:42.409Z,11.37
2018-09-01T07:15:10.117Z,14.23
2018-09-01T07:17:37.814Z,13.30
2018-09-01T07:20:05.590Z,13.33
2018-09-01T07:22:33.305Z,12.47
2018-09-01T07:25:01.014Z,14.70
2018-09-01T07:27:28.733Z,11.47
2018-09-01T07:29:56.454Z,11.13
2018-09-01T07:32:24.157Z,10.83
2018-09-01T07:34:51.975Z,11.60
2018-09-01T07:37:19.789Z,10.80
2018-09-01T07:39:47.557Z,11.53
2018-09-01T07:42:15.332Z,10.27
2018-09-01T07:44:43.165Z,13.00
2018-09-01T07:47:11.003Z,10.90
2018-09-01T07:49:38.719Z,19.37
2018-09-01T07:52:06.609Z,10.73
2018-09-01T07:54:34.355Z,11.90
2018-09-01T07:57:02.233Z,11.93
2018-09-01T07:59:29.995Z,12.13
2018-09-01T08:01:57.754Z,10.70
2018-09-01T08:04:25.498Z,11.20
2018-09-01T08:06:53.246Z,11.67
2018-09-01T08:09:20.999Z,10.63
2018-09-01T08:11:48.735Z,11.07
2018-09-01T08:14:16.637Z,11.27
2018-09-01T08:16:44.348Z,12.60
2018-09-01T08:19:12.087Z,11.03
2018-09-01T08:21:39.813Z,10.30
2018-09-01T08:24:07.506Z,11.33
2018-09-01T08:26:35.209Z,10.83
2018-09-01T08:29:03.023Z,11.33
2018-09-01T08:31:30.719Z,10.37
2018-09-01T08:33:58.502Z,12.13
2018-09-01T08:36:26.270Z,10.53
2018-09-01T08:38:53.997Z,11.60
2018-09-01T08:41:21.693Z,11.93
2018-09-01T08:43:49.689Z,12.57
2018-09-01T08:46:17.405Z,10.40
2018-09-01T08:48:45.138Z,11.27
2018-09-01T08:51:12.869Z,11.93
2018-09-01T08:53:40.601Z,13.53
2018-09-01T08:56:08.336Z,11.93
2018-09-01T08:58:36.129Z,10.93
2018-09-01T09:01:03.853Z,12.57
2018-09-01T09:03:31.913Z,12.57
2018-09-01T09:05:59.947Z,12.47
2018-09-01T09:08:27.658Z,13.23
2018-09-01T09:10:55.390Z,11.57
2018-09-01T09:13:23.138Z,11.20
2018-09-01T09:15:50.903Z,12.63
2018-09-01T09:18:18.645Z,12.70
2018-09-01T09:20:46.510Z,14.47
2018-09-01T09:23:14.350Z,17.43
2018-09-01T09:25:42.121Z,17.57
2018-09-01T09:28:09.900Z,16.83
2018-09-01T09:30:37.611Z,14.30
2018-09-01T09:33:05.517Z,15.80
2018-09-01T09:35:33.260Z,17.43
2018-09-01T09:38:01.400Z,14.70
2018-09-01T09:40:29.118Z,11.47
2018-09-01T09:42:56.903Z,15.03
2018-09-01T09:45:24.640Z,10.73
2018-09-01T09:47:52.397Z,12.50
2018-09-01T09:50:20.133Z,10.60
2018-09-01T09:52:47.854Z,12.43
2018-09-01T09:55:15.584Z,14.13
2018-09-01T09:57:43.324Z,13.80
2018-09-01T10:00:11.305Z,10.57
2018-09-01T10:02:39.009Z,10.87
2018-09-01T10:05:07.217Z,11.63
2018-09-01T10:07:35.023Z,12.63
2018-09-01T10:10:02.822Z,12.77
2018-09-01T10:12:30.602Z,10.47
2018-09-01T10:14:58.405Z,15.00
2018-09-01T10:17:26.095Z,10.23
2018-09-01T10:19:53.840Z,10.53
2018-09-01T10:22:21.578Z,11.15
2018-09-01T10:24:49.269Z,14.13
2018-09-01T10:27:17.113Z,12.45
2018-09-01T10:29:44.842Z,10.32
2018-09-01T10:32:12.565Z,10.88
2018-09-01T10:34:40.352Z,13.45
2018-09-01T10:37:08.073Z,11.28
2018-09-01T10:39:36.181Z,12.70
2018-09-01T10:42:03.945Z,13.25
2018-09-01T10:44:31.711Z,12.23
2018-09-01T10:46:59.429Z,12.03
2018-09-01T10:49:27.265Z,11.65
2018-09-01T10:51:55.106Z,10.98
2018-09-01T10:54:22.852Z,10.93
2018-09-01T10:56:50.641Z,10.43
2018-09-01T10:59:18.439Z,14.40
2018-09-01T11:01:46.189Z,13.00
2018-09-01T11:04:13.956Z,11.03
2018-09-01T11:06:41.725Z,10.93
2018-09-01T11:09:10.256Z,11.45
2018-09-01T11:11:38.024Z,10.88
2018-09-01T11:14:05.837Z,10.90
2018-09-01T11:16:33.585Z,11.45
2018-09-01T11:19:01.333Z,11.90
2018-09-01T11:21:29.049Z,12.85
2018-09-01T11:23:56.777Z,10.90
2018-09-01T11:26:24.618Z,10.48
2018-09-01T11:28:52.372Z,12.40
2018-09-01T11:31:20.228Z,14.87
2018-09-01T11:33:48.159Z,10.82
2018-09-01T11:36:15.877Z,9.93
2018-09-01T11:38:43.602Z,9.70
2018-09-01T11:41:11.337Z,11.90
2018-09-01T11:43:39.066Z,10.28
2018-09-01T11:46:06.831Z,12.50
2018-09-01T11:48:34.656Z,12.33
2018-09-01T11:51:02.450Z,12.05
2018-09-01T11:53:30.264Z,12.03
2018-09-01T11:55:58.889Z,10.63
2018-09-01T11:58:26.682Z,12.88
2018-09-01T12:00:54.601Z,14.50
2018-09-01T12:03:22.338Z,11.48
2018-09-01T12:05:50.034Z,11.78
2018-09-01T12:08:17.752Z,9.68
2018-09-01T12:10:45.496Z,14.07
2018-09-01T12:13:13.229Z,11.90
2018-09-01T12:15:41.006Z,11.55
2018-09-01T12:18:08.856Z,10.43
2018-09-01T12:20:36.595Z,9.25
2018-09-01T12:23:04.365Z,11.40
2018-09-01T12:25:32.182Z,9.25
2018-09-01T12:27:59.902Z,12.40
2018-09-01T12:30:27.627Z,13.93
2018-09-01T12:32:55.352Z,11.50
2018-09-01T12:35:23.134Z,14.20
2018-09-01T12:37:50.867Z,11.85
2018-09-01T12:40:18.632Z,10.53
2018-09-01T12:42:46.393Z,12.00
2018-09-01T12:45:14.149Z,9.48
2018-09-01T12:47:41.924Z,15.00
2018-09-01T12:50:09.678Z,12.50
2018-09-01T12:52:37.441Z,10.72
2018-09-01T12:55:05.301Z,11.83
2018-09-01T12:57:33.839Z,10.32
2018-09-01T13:00:01.538Z,11.12
2018-09-01T13:02:29.441Z,9.78
2018-09-01T13:04:57.182Z,13.55
2018-09-01T13:07:24.932Z,10.60
2018-09-01T13:09:52.680Z,8.73
2018-09-01T13:12:20.417Z,9.80
2018-09-01T13:14:48.149Z,10.93
2018-09-01T13:17:15.921Z,12.30
2018-09-01T13:19:44.089Z,10.80
2018-09-01T13:22:11.756Z,12.20
2018-09-01T13:24:39.776Z,10.03
2018-09-01T13:27:07.537Z,15.20
2018-09-01T13:29:35.301Z,12.15
2018-09-01T13:32:03.138Z,10.82
2018-09-01T13:34:31.049Z,11.65
2018-09-01T13:36:59.180Z,13.43
2018-09-01T13:39:27.015Z,11.15
2018-09-01T13:41:54.801Z,9.28
2018-09-01T13:44:22.535Z,11.65
2018-09-01T13:46:50.337Z,12.58
2018-09-01T13:49:18.197Z,10.72
2018-09-01T13:51:45.925Z,15.08
2018-09-01T13:54:13.712Z,9.15
2018-09-01T13:56:41.454Z,11.45
2018-09-01T13:59:09.476Z,17.82
2018-09-01T14:01:37.264Z,12.68
2018-09-01T14:04:05.040Z,11.53
2018-09-01T14:06:32.782Z,11.40
2018-09-01T14:09:00.553Z,12.53
2018-09-01T14:11:28.324Z,10.65
2018-09-01T14:13:56.080Z,11.60
2018-09-01T14:16:23.858Z,13.00
2018-09-01T14:18:51.640Z,11.30
2018-09-01T14:21:19.386Z,12.20
2018-09-01T14:23:47.187Z,10.70
2018-09-01T14:26:14.936Z,10.40
2018-09-01T14:28:42.713Z,18.20
2018-09-01T14:31:10.554Z,15.03
2018-09-01T14:33:38.294Z,13.22
2018-09-01T14:36:06.434Z,11.40
2018-09-01T14:38:34.299Z,11.05
2018-09-01T14:41:02.044Z,12.75
2018-09-01T14:43:29.777Z,11.13
2018-09-01T14:45:57.626Z,12.25
2018-09-01T14:48:25.504Z,11.85
2018-09-01T14:50:53.176Z,12.30
2018-09-01T14:53:20.987Z,18.00
2018-09-01T14:55:48.742Z,11.73
2018-09-01T14:58:16.476Z,11.65
2018-09-01T15:00:44.278Z,11.93
2018-09-01T15:03:12.027Z,13.43
2018-09-01T15:05:39.742Z,14.00
2018-09-01T15:08:07.724Z,11.83
2018-09-01T15:10:35.836Z,10.23
2018-09-01T15:13:03.638Z,10.57
2018-09-01T15:15:31.415Z,12.00
2018-09-01T15:17:59.132Z,10.70
2018-09-01T15:20:27.006Z,14.37
2018-09-01T15:22:54.804Z,15.57
2018-09-01T15:25:22.606Z,12.77
2018-09-01T15:27:50.373Z,17.00
2018-09-01T15:30:18.232Z,12.37
2018-09-01T15:32:45.967Z,11.87
2018-09-01T15:35:13.754Z,13.37
2018-09-01T15:37:41.513Z,17.60
2018-09-01T15:40:09.306Z,13.47
2018-09-01T15:42:37.067Z,13.00
2018-09-01T15:45:04.903Z,13.20
2018-09-01T15:47:32.715Z,12.37
2018-09-01T15:50:00.502Z,13.35
2018-09-01T15:52:28.292Z,12.60
2018-09-01T15:54:56.049Z,13.03
2018-09-01T15:57:23.789Z,13.63
2018-09-01T15:59:51.630Z,13.13
2018-09-01T16:02:19.369Z,13.57
2018-09-01T16:04:47.140Z,11.67
2018-09-01T16:07:14.944Z,15.80
2018-09-01T16:09:42.658Z,13.37
2018-09-01T16:12:10.392Z,14.33
2018-09-01T16:14:38.145Z,15.37
2018-09-01T16:17:05.985Z,17.50
2018-09-01T16:19:33.701Z,13.00
2018-09-01T16:22:01.441Z,17.90
2018-09-01T16:24:29.217Z,14.33
2018-09-01T16:26:56.938Z,12.73
2018-09-01T16:29:24.691Z,16.07
2018-09-01T16:31:52.481Z,13.83
2018-09-01T16:34:20.369Z,15.80
2018-09-01T16:36:48.142Z,16.80
2018-09-01T16:39:15.859Z,19.23
2018-09-01T16:41:43.578Z,17.53
2018-09-01T16:44:11.324Z,18.37
2018-09-01T16:46:39.340Z,13.60
2018-09-01T16:49:07.080Z,20.13
2018-09-01T16:51:34.864Z,21.07
2018-09-01T16:54:02.593Z,15.63
2018-09-01T16:56:30.349Z,18.87
2018-09-01T16:58:58.177Z,17.77
2018-09-01T17:01:25.881Z,17.10
2018-09-01T17:03:53.603Z,19.97
2018-09-01T17:06:21.359Z,19.27
2018-09-01T17:08:49.084Z,26.07
2018-09-01T17:11:16.837Z,21.90
2018-09-01T17:13:44.710Z,15.47
2018-09-01T17:16:12.413Z,15.37
2018-09-01T17:18:40.139Z,20.47
2018-09-01T17:21:08.257Z,16.47
2018-09-01T17:23:36.073Z,16.87
2018-09-01T17:26:04.137Z,16.77
2018-09-01T17:28:31.862Z,24.33
2018-09-01T17:30:59.645Z,21.83
2018-09-01T17:33:27.525Z,25.83
2018-09-01T17:35:55.243Z,31.30
2018-09-01T17:38:22.978Z,28.40
2018-09-01T17:40:50.700Z,23.20
2018-09-01T17:43:18.417Z,22.20
2018-09-01T17:45:46.153Z,20.80
2018-09-01T17:48:14.277Z,20.87
2018-09-01T17:50:42.081Z,20.83
2018-09-01T17:53:09.829Z,23.07
2018-09-01T17:55:37.565Z,27.10
2018-09-01T17:58:05.297Z,22.07
2018-09-01T18:00:33.129Z,22.73
2018-09-01T18:03:00.819Z,25.17
2018-09-01T18:05:28.549Z,16.40
2018-09-01T18:07:56.303Z,17.90
2018-09-01T18:10:24.397Z,17.33
2018-09-01T18:12:52.162Z,22.53
2018-09-01T18:15:19.866Z,14.73
2018-09-01T18:17:47.701Z,17.70
2018-09-01T18:20:15.413Z,16.63
2018-09-01T18:22:43.153Z,18.50
2018-09-01T18:25:10.841Z,18.87
2018-09-01T18:27:38.590Z,15.87
2018-09-01T18:30:07.141Z,16.53
2018-09-01T18:32:34.932Z,13.87
2018-09-01T18:35:02.674Z,20.53
2018-09-01T18:37:30.413Z,22.77
2018-09-01T18:39:58.089Z,15.90
2018-09-01T18:42:25.845Z,19.40
2018-09-01T18:44:53.597Z,15.80
2018-09-01T18:47:21.374Z,17.53
2018-09-01T18:49:49.191Z,18.57
2018-09-01T18:52:16.947Z,16.20
2018-09-01T18:54:44.653Z,19.90
2018-09-01T18:57:12.390Z,20.70
2018-09-01T18:59:40.100Z,20.27
2018-09-01T19:02:07.781Z,17.87
2018-09-01T19:04:35.601Z,19.00
2018-09-01T19:07:03.392Z,15.70
2018-09-01T19:09:31.086Z,16.17
2018-09-01T19:11:58.813Z,15.73
2018-09-01T19:14:26.805Z,19.07
2018-09-01T19:16:54.520Z,12.43
2018-09-01T19:19:22.269Z,16.97
2018-09-01T19:21:49.960Z,16.87
2018-09-01T19:24:17.716Z,13.97
2018-09-01T19:26:45.464Z,12.40
2018-09-01T19:29:13.197Z,14.00
2018-09-01T19:31:40.978Z,18.77
2018-09-01T19:34:08.802Z,22.63
2018-09-01T19:36:36.546Z,18.67
2018-09-01T19:39:06.170Z,15.30
2018-09-01T19:41:33.915Z,14.23
2018-09-01T19:44:01.635Z,21.17
2018-09-01T19:46:29.341Z,14.30
2018-09-01T19:48:57.049Z,16.53
2018-09-01T19:51:24.869Z,13.83
2018-09-01T19:53:52.474Z,14.07
2018-09-01T19:56:20.203Z,18.73
2018-09-01T19:58:47.913Z,15.57
2018-09-01T20:01:15.656Z,19.60
2018-09-01T20:03:43.367Z,17.50
2018-09-01T20:06:11.061Z,18.33
2018-09-01T20:08:39.070Z,14.97
2018-09-01T20:11:06.821Z,15.40
2018-09-01T20:13:34.553Z,17.53
2018-09-01T20:16:02.269Z,18.00
2018-09-01T20:18:30.014Z,19.57
2018-09-01T20:20:57.780Z,14.73
2018-09-01T20:23:25.750Z,17.97
2018-09-01T20:25:53.461Z,17.10
2018-09-01T20:28:21.164Z,15.83
2018-09-01T20:30:48.862Z,19.53
2018-09-01T20:33:16.608Z,21.07
2018-09-01T20:35:49.820Z,21.53
2018-09-01T20:38:17.557Z,19.53
2018-09-01T20:40:45.366Z,19.40
2018-09-01T20:43:13.072Z,17.07
2018-09-01T20:45:40.897Z,16.47
2018-09-01T20:48:08.626Z,18.20
2018-09-01T20:50:36.326Z,15.60
2018-09-01T20:53:04.090Z,16.00
2018-09-01T20:55:31.821Z,15.63
2018-09-01T20:57:59.519Z,17.53
2018-09-01T21:00:27.304Z,20.00
2018-09-01T21:02:55.043Z,18.77
2018-09-01T21:05:22.781Z,15.50
2018-09-01T21:07:50.589Z,18.53
2018-09-01T21:10:18.264Z,17.47
2018-09-01T21:12:45.985Z,19.90
2018-09-01T21:15:13.693Z,14.57
2018-09-01T21:17:41.401Z,15.80
2018-09-01T21:20:09.144Z,15.33
2018-09-01T21:22:36.892Z,17.47
2018-09-01T21:25:04.811Z,14.23
2018-09-01T21:27:32.533Z,21.13
2018-09-01T21:30:00.278Z,15.00
2018-09-01T21:32:28.069Z,15.30
2018-09-01T21:34:55.810Z,16.30
2018-09-01T21:37:23.577Z,17.93
2018-09-01T21:39:51.309Z,18.30
2018-09-01T21:42:19.040Z,18.13
2018-09-01T21:44:46.783Z,18.00
2018-09-01T21:47:14.584Z,16.20
2018-09-01T21:49:42.335Z,14.60
2018-09-01T21:52:10.094Z,18.13
2018-09-01T21:54:37.783Z,19.07
2018-09-01T21:57:05.798Z,18.63
2018-09-01T21:59:33.645Z,18.37
2018-09-01T22:02:06.872Z,23.97
2018-09-01T22:04:40.094Z,19.93
2018-09-01T22:07:07.797Z,18.77
2018-09-01T22:09:35.485Z,15.27
2018-09-01T22:12:03.173Z,18.23
2018-09-01T22:14:30.867Z,19.27
2018-09-01T22:16:58.570Z,14.80
2018-09-01T22:19:26.317Z,18.97
2018-09-01T22:21:54.026Z,15.50
2018-09-01T22:24:21.727Z,13.13
2018-09-01T22:26:49.459Z,14.47
2018-09-01T22:29:17.129Z,14.80
2018-09-01T22:31:44.822Z,15.97
2018-09-01T22:34:12.548Z,15.50
2018-09-01T22:36:40.219Z,15.03
2018-09-01T22:39:07.949Z,17.33
2018-09-01T22:41:35.650Z,18.83
2018-09-01T22:44:03.355Z,19.97
2018-09-01T22:46:31.125Z,15.47
2018-09-01T22:48:58.843Z,17.43
2018-09-01T22:51:26.568Z,17.33
2018-09-01T22:53:54.238Z,18.50
2018-09-01T22:56:21.950Z,17.60
2018-09-01T22:58:49.633Z,17.10
2018-09-01T23:01:17.314Z,17.43
2018-09-01T23:03:45.028Z,18.20
2018-09-01T23:06:12.669Z,15.37
2018-09-01T23:08:40.329Z,20.27
2018-09-01T23:11:08.021Z,20.43
2018-09-01T23:13:35.702Z,22.10
2018-09-01T23:16:03.418Z,18.07
2018-09-01T23:18:31.117Z,14.63
2018-09-01T23:20:58.868Z,15.20
2018-09-01T23:23:26.533Z,18.43
2018-09-01T23:25:54.264Z,17.23
2018-09-01T23:28:21.925Z,26.93
2018-09-01T23:30:49.611Z,15.87
2018-09-01T23:33:17.326Z,14.87
2018-09-01T23:35:45.006Z,15.80
2018-09-01T23:38:12.675Z,14.53
2018-09-01T23:40:40.384Z,16.23
2018-09-01T23:43:08.066Z,15.33
2018-09-01T23:45:35.725Z,16.77
2018-09-01T23:48:03.442Z,15.13
2018-09-01T23:50:31.119Z,18.10
2018-09-01T23:52:58.822Z,15.20
2018-09-01T23:55:26.570Z,14.97
2018-09-01T23:57:54.254Z,15.93
